sensor_id;sensor_type;location;lat;lon;timestamp;pressure;altitude;pressure_sealevel;temperature;humidity
73240;BME280;61452;40.054;4.110;2022-10-04T00:01:06;101958.53;;;24.56;43.23
73240;BME280;61452;40.054;4.110;2022-10-04T00:06:19;101978.72;;;24.60;43.22
73240;BME280;61452;40.054;4.110;2022-10-04T00:11:25;101982.38;;;24.59;43.45
73240;BME280;61452;40.054;4.110;2022-10-04T00:16:32;102000.19;;;24.60;43.30
73240;BME280;61452;40.054;4.110;2022-10-04T00:27:10;102001.19;;;24.59;43.34
73240;BME280;61452;40.054;4.110;2022-10-04T00:32:22;102005.56;;;24.60;43.37
73240;BME280;61452;40.054;4.110;2022-10-04T00:37:26;102007.38;;;24.59;43.34
73240;BME280;61452;40.054;4.110;2022-10-04T00:53:01;102002.16;;;24.58;43.40
73240;BME280;61452;40.054;4.110;2022-10-04T00:58:13;102007.53;;;24.58;43.44
73240;BME280;61452;40.054;4.110;2022-10-04T01:03:25;101999.34;;;24.59;43.28
73240;BME280;61452;40.054;4.110;2022-10-04T01:08:34;101994.09;;;24.58;43.35
73240;BME280;61452;40.054;4.110;2022-10-04T01:13:44;102002.88;;;24.60;43.03
73240;BME280;61452;40.054;4.110;2022-10-04T01:18:47;101992.16;;;24.60;43.52
73240;BME280;61452;40.054;4.110;2022-10-04T01:24:15;101993.25;;;24.57;43.17
73240;BME280;61452;40.054;4.110;2022-10-04T01:29:26;101992.41;;;24.57;43.24
73240;BME280;61452;40.054;4.110;2022-10-04T01:34:29;101997.75;;;24.57;43.37
73240;BME280;61452;40.054;4.110;2022-10-04T01:39:31;101996.91;;;24.56;43.54
73240;BME280;61452;40.054;4.110;2022-10-04T01:49:43;101949.03;;;24.52;43.50
73240;BME280;61452;40.054;4.110;2022-10-04T01:54:50;101954.00;;;24.56;43.23
73240;BME280;61452;40.054;4.110;2022-10-04T02:00:12;101959.34;;;24.56;43.08
73240;BME280;61452;40.054;4.110;2022-10-04T02:05:18;101956.66;;;24.56;43.43
73240;BME280;61452;40.054;4.110;2022-10-04T02:10:22;101949.63;;;24.55;43.34
73240;BME280;61452;40.054;4.110;2022-10-04T02:15:26;101955.97;;;24.54;43.44
73240;BME280;61452;40.054;4.110;2022-10-04T02:20:28;101958.53;;;24.56;43.20
73240;BME280;61452;40.054;4.110;2022-10-04T02:25:30;101938.91;;;24.55;43.34
73240;BME280;61452;40.054;4.110;2022-10-04T02:30:37;101941.59;;;24.55;43.42
73240;BME280;61452;40.054;4.110;2022-10-04T02:35:45;101938.06;;;24.55;43.27
73240;BME280;61452;40.054;4.110;2022-10-04T02:40:56;101938.91;;;24.55;43.12
73240;BME280;61452;40.054;4.110;2022-10-04T02:56:24;101929.16;;;24.54;43.35
73240;BME280;61452;40.054;4.110;2022-10-04T03:01:39;101921.09;;;24.54;43.11
73240;BME280;61452;40.054;4.110;2022-10-04T03:06:43;101915.75;;;24.54;43.01
73240;BME280;61452;40.054;4.110;2022-10-04T03:11:49;101912.06;;;24.55;43.26
73240;BME280;61452;40.054;4.110;2022-10-04T03:16:54;101919.28;;;24.55;43.19
73240;BME280;61452;40.054;4.110;2022-10-04T03:22:01;101912.19;;;24.54;43.09
73240;BME280;61452;40.054;4.110;2022-10-04T03:27:06;101905.84;;;24.55;43.18
73240;BME280;61452;40.054;4.110;2022-10-04T03:32:13;101902.44;;;24.53;43.34
73240;BME280;61452;40.054;4.110;2022-10-04T03:37:16;101902.31;;;24.54;43.18
73240;BME280;61452;40.054;4.110;2022-10-04T03:42:28;101898.78;;;24.54;43.25
73240;BME280;61452;40.054;4.110;2022-10-04T03:47:38;101902.44;;;24.53;43.11
73240;BME280;61452;40.054;4.110;2022-10-04T03:52:47;101897.09;;;24.53;43.10
73240;BME280;61452;40.054;4.110;2022-10-04T03:57:51;101897.22;;;24.51;43.10
73240;BME280;61452;40.054;4.110;2022-10-04T04:02:57;101910.63;;;24.51;43.25
73240;BME280;61452;40.054;4.110;2022-10-04T04:08:06;101903.31;;;24.53;43.10
73240;BME280;61452;40.054;4.110;2022-10-04T04:18:22;101915.00;;;24.52;43.08
73240;BME280;61452;40.054;4.110;2022-10-04T04:23:33;101905.44;;;24.50;43.06
73240;BME280;61452;40.054;4.110;2022-10-04T04:29:01;101912.47;;;24.51;42.96
73240;BME280;61452;40.054;4.110;2022-10-04T04:34:23;101916.00;;;24.51;43.06
73240;BME280;61452;40.054;4.110;2022-10-04T04:39:27;101913.31;;;24.51;43.01
73240;BME280;61452;40.054;4.110;2022-10-04T04:49:49;101918.69;;;24.51;43.62
73240;BME280;61452;40.054;4.110;2022-10-04T04:54:51;101921.38;;;24.51;43.88
73240;BME280;61452;40.054;4.110;2022-10-04T04:59:58;101934.78;;;24.51;44.02
73240;BME280;61452;40.054;4.110;2022-10-04T05:05:21;101951.72;;;24.52;44.42
73240;BME280;61452;40.054;4.110;2022-10-04T05:10:28;101966.84;;;24.53;44.25
73240;BME280;61452;40.054;4.110;2022-10-04T05:15:34;101979.41;;;24.52;44.48
73240;BME280;61452;40.054;4.110;2022-10-04T05:20:36;101973.19;;;24.52;44.47
73240;BME280;61452;40.054;4.110;2022-10-04T05:25:39;101977.69;;;24.51;44.59
73240;BME280;61452;40.054;4.110;2022-10-04T05:41:31;102011.59;;;24.52;45.13
73240;BME280;61452;40.054;4.110;2022-10-04T05:46:37;102007.22;;;24.51;45.15
73240;BME280;61452;40.054;4.110;2022-10-04T05:51:56;102008.06;;;24.52;44.94
73240;BME280;61452;40.054;4.110;2022-10-04T06:07:42;102034.03;;;24.51;45.13
73240;BME280;61452;40.054;4.110;2022-10-04T06:12:57;102045.63;;;24.52;44.72
73240;BME280;61452;40.054;4.110;2022-10-04T06:23:09;102052.81;;;24.51;44.66
73240;BME280;61452;40.054;4.110;2022-10-04T06:33:41;102065.78;;;24.46;44.56
73240;BME280;61452;40.054;4.110;2022-10-04T06:39:21;102071.75;;;24.50;44.29
73240;BME280;61452;40.054;4.110;2022-10-04T06:50:11;102083.31;;;24.50;44.38
73240;BME280;61452;40.054;4.110;2022-10-04T07:00:58;102081.63;;;24.49;43.92
73240;BME280;61452;40.054;4.110;2022-10-04T07:06:06;102087.84;;;24.50;43.91
73240;BME280;61452;40.054;4.110;2022-10-04T07:11:15;102086.84;;;24.51;43.96
73240;BME280;61452;40.054;4.110;2022-10-04T07:16:39;102093.22;;;24.50;43.78
73240;BME280;61452;40.054;4.110;2022-10-04T07:22:03;102086.13;;;24.49;43.89
73240;BME280;61452;40.054;4.110;2022-10-04T07:27:17;102094.03;;;24.50;43.85
73240;BME280;61452;40.054;4.110;2022-10-04T07:32:29;102087.84;;;24.50;43.60
73240;BME280;61452;40.054;4.110;2022-10-04T07:37:42;102089.69;;;24.49;43.44
73240;BME280;61452;40.054;4.110;2022-10-04T07:42:48;102086.13;;;24.49;43.48
73240;BME280;61452;40.054;4.110;2022-10-04T07:48:13;102088.81;;;24.49;43.43
73240;BME280;61452;40.054;4.110;2022-10-04T07:53:20;102084.31;;;24.49;43.46
73240;BME280;61452;40.054;4.110;2022-10-04T08:04:09;102089.69;;;24.49;43.34
73240;BME280;61452;40.054;4.110;2022-10-04T08:09:27;102090.66;;;24.48;43.61
73240;BME280;61452;40.054;4.110;2022-10-04T08:25:29;102101.25;;;24.50;44.26
73240;BME280;61452;40.054;4.110;2022-10-04T08:36:01;102112.00;;;24.50;44.52
73240;BME280;61452;40.054;4.110;2022-10-04T08:41:39;102117.19;;;24.51;45.05
73240;BME280;61452;40.054;4.110;2022-10-04T08:58:39;102122.56;;;24.51;45.76
73240;BME280;61452;40.054;4.110;2022-10-04T09:47:29;102125.97;;;24.53;46.91
73240;BME280;61452;40.054;4.110;2022-10-04T09:52:53;102131.22;;;24.55;46.99
73240;BME280;61452;40.054;4.110;2022-10-04T10:03:25;102132.19;;;24.54;47.02
73240;BME280;61452;40.054;4.110;2022-10-04T10:14:18;102129.38;;;24.55;47.18
73240;BME280;61452;40.054;4.110;2022-10-04T10:30:02;102120.34;;;24.56;47.19
73240;BME280;61452;40.054;4.110;2022-10-04T10:35:26;102111.47;;;24.56;47.64
73240;BME280;61452;40.054;4.110;2022-10-04T11:39:54;102099.47;;;24.60;47.34
73240;BME280;61452;40.054;4.110;2022-10-04T12:33:28;102092.16;;;24.62;47.01
73240;BME280;61452;40.054;4.110;2022-10-04T12:44:57;102073.38;;;24.62;47.01
73240;BME280;61452;40.054;4.110;2022-10-04T13:01:12;102113.44;;;24.64;46.93
73240;BME280;61452;40.054;4.110;2022-10-04T13:06:37;102111.63;;;24.64;46.81
73240;BME280;61452;40.054;4.110;2022-10-04T13:12:03;102108.09;;;24.64;46.71
73240;BME280;61452;40.054;4.110;2022-10-04T13:54:38;102127.59;;;24.66;46.28
73240;BME280;61452;40.054;4.110;2022-10-04T14:00:18;102144.56;;;24.66;46.22
73240;BME280;61452;40.054;4.110;2022-10-04T14:23:18;102128.44;;;24.66;46.47
73240;BME280;61452;40.054;4.110;2022-10-04T14:50:24;102119.16;;;24.70;46.90
73240;BME280;61452;40.054;4.110;2022-10-04T15:01:13;102121.81;;;24.70;46.77
73240;BME280;61452;40.054;4.110;2022-10-04T15:06:38;102123.53;;;24.71;47.20
73240;BME280;61452;40.054;4.110;2022-10-04T15:11:53;102119.16;;;24.70;47.15
73240;BME280;61452;40.054;4.110;2022-10-04T15:17:32;102111.09;;;24.70;47.12
73240;BME280;61452;40.054;4.110;2022-10-04T15:22:45;102124.38;;;24.72;47.11
73240;BME280;61452;40.054;4.110;2022-10-04T15:27:52;102110.97;;;24.72;47.21
73240;BME280;61452;40.054;4.110;2022-10-04T15:43:44;102113.53;;;24.73;46.88
73240;BME280;61452;40.054;4.110;2022-10-04T15:54:30;102111.81;;;24.72;46.83
73240;BME280;61452;40.054;4.110;2022-10-04T16:10:26;102120.72;;;24.73;46.65
73240;BME280;61452;40.054;4.110;2022-10-04T16:15:31;102117.19;;;24.72;46.65
73240;BME280;61452;40.054;4.110;2022-10-04T16:21:29;102114.38;;;24.74;46.60
73240;BME280;61452;40.054;4.110;2022-10-04T16:42:15;102135.69;;;24.75;46.26
73240;BME280;61452;40.054;4.110;2022-10-04T16:53:14;102132.19;;;24.75;46.13
73240;BME280;61452;40.054;4.110;2022-10-04T17:03:35;102127.63;;;24.75;46.04
73240;BME280;61452;40.054;4.110;2022-10-04T17:09:02;102125.81;;;24.76;46.07
73240;BME280;61452;40.054;4.110;2022-10-04T17:25:28;102133.72;;;24.77;45.91
73240;BME280;61452;40.054;4.110;2022-10-04T17:36:33;102140.94;;;24.77;45.74
73240;BME280;61452;40.054;4.110;2022-10-04T17:47:21;102147.16;;;24.77;45.75
73240;BME280;61452;40.054;4.110;2022-10-04T17:52:31;102156.06;;;24.78;45.82
73240;BME280;61452;40.054;4.110;2022-10-04T17:58:08;102165.22;;;24.75;45.54
73240;BME280;61452;40.054;4.110;2022-10-04T18:03:24;102175.69;;;24.78;45.61
73240;BME280;61452;40.054;4.110;2022-10-04T18:13:47;102167.66;;;24.78;45.68
73240;BME280;61452;40.054;4.110;2022-10-04T18:18:50;102171.31;;;24.77;45.60
73240;BME280;61452;40.054;4.110;2022-10-04T18:24:00;102173.00;;;24.78;45.50
73240;BME280;61452;40.054;4.110;2022-10-04T18:29:34;102182.03;;;24.77;45.34
73240;BME280;61452;40.054;4.110;2022-10-04T18:34:36;102186.31;;;24.80;45.27
73240;BME280;61452;40.054;4.110;2022-10-04T18:39:46;102189.97;;;24.79;45.16
73240;BME280;61452;40.054;4.110;2022-10-04T18:45:00;102194.38;;;24.80;45.06
73240;BME280;61452;40.054;4.110;2022-10-04T19:00:33;102209.63;;;24.79;45.04
73240;BME280;61452;40.054;4.110;2022-10-04T19:06:05;102211.44;;;24.79;44.90
73240;BME280;61452;40.054;4.110;2022-10-04T19:12:07;102211.44;;;24.79;44.82
73240;BME280;61452;40.054;4.110;2022-10-04T19:17:02;102216.69;;;24.80;44.96
73240;BME280;61452;40.054;4.110;2022-10-04T19:22:37;102221.31;;;24.78;44.80
73240;BME280;61452;40.054;4.110;2022-10-04T19:28:05;102222.19;;;24.79;44.88
73240;BME280;61452;40.054;4.110;2022-10-04T19:38:52;102223.16;;;24.78;44.64
73240;BME280;61452;40.054;4.110;2022-10-04T19:44:23;102224.97;;;24.77;44.73
73240;BME280;61452;40.054;4.110;2022-10-04T19:49:56;102232.06;;;24.78;44.69
73240;BME280;61452;40.054;4.110;2022-10-04T20:00:23;102231.09;;;24.79;44.33
73240;BME280;61452;40.054;4.110;2022-10-04T20:05:25;102239.13;;;24.79;44.50
73240;BME280;61452;40.054;4.110;2022-10-04T20:10:31;102240.84;;;24.80;44.51
73240;BME280;61452;40.054;4.110;2022-10-04T20:25:58;102242.78;;;24.78;44.41
73240;BME280;61452;40.054;4.110;2022-10-04T20:31:02;102234.63;;;24.80;44.35
73240;BME280;61452;40.054;4.110;2022-10-04T20:36:05;102242.69;;;24.80;44.17
73240;BME280;61452;40.054;4.110;2022-10-04T20:41:41;102241.81;;;24.79;44.25
73240;BME280;61452;40.054;4.110;2022-10-04T20:47:01;102246.34;;;24.79;44.30
73240;BME280;61452;40.054;4.110;2022-10-04T20:52:04;102238.28;;;24.79;44.31
73240;BME280;61452;40.054;4.110;2022-10-04T20:57:11;102252.56;;;24.79;44.11
73240;BME280;61452;40.054;4.110;2022-10-04T21:02:16;102258.78;;;24.80;44.15
73240;BME280;61452;40.054;4.110;2022-10-04T21:07:21;102263.28;;;24.79;44.48
73240;BME280;61452;40.054;4.110;2022-10-04T21:12:35;102258.78;;;24.80;44.44
73240;BME280;61452;40.054;4.110;2022-10-04T21:17:38;102278.53;;;24.79;44.48
73240;BME280;61452;40.054;4.110;2022-10-04T21:22:40;102290.13;;;24.79;44.32
73240;BME280;61452;40.054;4.110;2022-10-04T21:27:42;102300.03;;;24.79;44.38
73240;BME280;61452;40.054;4.110;2022-10-04T21:32:45;102317.84;;;24.80;44.42
73240;BME280;61452;40.054;4.110;2022-10-04T21:37:47;102316.97;;;24.79;44.52
73240;BME280;61452;40.054;4.110;2022-10-04T21:42:49;102320.50;;;24.80;44.15
73240;BME280;61452;40.054;4.110;2022-10-04T21:47:51;102329.41;;;24.80;44.32
73240;BME280;61452;40.054;4.110;2022-10-04T21:52:53;102332.22;;;24.79;44.43
73240;BME280;61452;40.054;4.110;2022-10-04T21:57:55;102331.25;;;24.80;44.22
73240;BME280;61452;40.054;4.110;2022-10-04T22:02:57;102326.84;;;24.79;44.13
73240;BME280;61452;40.054;4.110;2022-10-04T22:07:59;102338.56;;;24.78;44.37
73240;BME280;61452;40.054;4.110;2022-10-04T22:13:01;102344.78;;;24.78;44.12
73240;BME280;61452;40.054;4.110;2022-10-04T22:18:03;102345.66;;;24.79;43.88
73240;BME280;61452;40.054;4.110;2022-10-04T22:23:11;102350.28;;;24.77;43.95
73240;BME280;61452;40.054;4.110;2022-10-04T22:28:23;102350.28;;;24.77;44.13
73240;BME280;61452;40.054;4.110;2022-10-04T22:33:36;102359.06;;;24.79;44.03
73240;BME280;61452;40.054;4.110;2022-10-04T22:38:39;102366.25;;;24.78;43.82
73240;BME280;61452;40.054;4.110;2022-10-04T22:43:41;102360.16;;;24.76;43.92
73240;BME280;61452;40.054;4.110;2022-10-04T22:48:47;102367.25;;;24.77;43.92
73240;BME280;61452;40.054;4.110;2022-10-04T22:53:49;102356.63;;;24.76;43.89
73240;BME280;61452;40.054;4.110;2022-10-04T22:58:52;102344.91;;;24.77;43.85
73240;BME280;61452;40.054;4.110;2022-10-04T23:03:56;102348.44;;;24.77;43.81
73240;BME280;61452;40.054;4.110;2022-10-04T23:08:58;102352.97;;;24.77;43.80
73240;BME280;61452;40.054;4.110;2022-10-04T23:14:00;102346.75;;;24.76;43.95
73240;BME280;61452;40.054;4.110;2022-10-04T23:19:11;102345.78;;;24.77;43.84
73240;BME280;61452;40.054;4.110;2022-10-04T23:24:21;102350.28;;;24.77;44.05
73240;BME280;61452;40.054;4.110;2022-10-04T23:29:29;102346.75;;;24.76;43.80
73240;BME280;61452;40.054;4.110;2022-10-04T23:34:35;102336.16;;;24.75;43.88
73240;BME280;61452;40.054;4.110;2022-10-04T23:39:37;102341.38;;;24.76;43.59
73240;BME280;61452;40.054;4.110;2022-10-04T23:44:39;102329.78;;;24.76;43.64
73240;BME280;61452;40.054;4.110;2022-10-04T23:49:41;102311.16;;;24.74;43.87
73240;BME280;61452;40.054;4.110;2022-10-04T23:54:46;102319.19;;;24.74;43.63
73240;BME280;61452;40.054;4.110;2022-10-04T23:59:49;102321.88;;;24.74;43.69
